KMRT

Union County Airport

Marysville, Ohio, USA
METAR KMRT 201555Z AUTO 11005KT 10SM CLR 24/19 A3002 RMK AO2 T02420189
Observed Flight Rules
Aug-20 @ 15:55 UTC (30 minutes ago) Visual Flight Rules
Wind Visibility Clouds
110° at 5 knots 10 miles
  • Clear skies
Temperatures Readings
Current 24°C / 75°F
Dewpoint 19°C / 66°F
Humidity 74%
Altimeter 30.02" Hg
Pressure 1017 hPa
Elevation 312
METAR KMRT 201555Z AUTO 11005KT 10SM CLR 24/19 A3002 RMK AO2 T02420189
Observed Flight Rules
Aug-20 @ 15:55 UTC
(30 minutes ago)
VFR
Wind Visibility
110° at 5 knots 10 miles
Clouds
  • Clear skies
Temperature Dewpoint
24°C / 75°F 19°C / 66°F
Humidity Altimeter Pressure
74% 30.02" Hg 1017 hPa